createdAt,value
2022-10-16T00:13:06.534Z,13.49
2022-10-16T00:18:08.326Z,13.46
2022-10-16T00:23:11.643Z,13.47
2022-10-16T00:28:13.707Z,13.46
2022-10-16T00:33:15.593Z,13.46
2022-10-16T00:38:18.276Z,13.45
2022-10-16T00:43:39.525Z,13.44
2022-10-16T00:48:48.733Z,13.43
2022-10-16T00:54:09.263Z,13.43
2022-10-16T00:59:27.343Z,13.43
2022-10-16T01:04:35.588Z,13.42
2022-10-16T01:09:48.428Z,13.41
2022-10-16T01:15:15.830Z,13.39
2022-10-16T01:20:22.436Z,13.35
2022-10-16T01:25:38.200Z,13.33
2022-10-16T01:30:43.076Z,13.31
2022-10-16T01:35:53.239Z,13.28
2022-10-16T01:41:02.328Z,13.24
2022-10-16T01:46:04.917Z,13.22
2022-10-16T01:51:19.329Z,13.20
2022-10-16T01:56:23.756Z,13.17
2022-10-16T02:01:30.736Z,13.16
2022-10-16T02:06:33.130Z,13.14
2022-10-16T02:11:34.903Z,13.12
2022-10-16T02:16:43.049Z,13.13
2022-10-16T02:21:57.454Z,13.15
2022-10-16T02:27:06.755Z,13.16
2022-10-16T02:32:11.368Z,13.14
2022-10-16T02:37:13.731Z,13.09
2022-10-16T02:42:16.420Z,13.03
2022-10-16T02:47:18.345Z,12.98
2022-10-16T02:52:20.204Z,12.95
2022-10-16T02:57:22.196Z,12.95
2022-10-16T03:02:24.284Z,12.97
2022-10-16T03:07:26.697Z,13.01
2022-10-16T03:12:28.869Z,13.10
2022-10-16T03:17:32.530Z,13.19
2022-10-16T03:22:34.448Z,13.30
2022-10-16T03:27:36.540Z,13.40
2022-10-16T03:32:50.725Z,13.50
2022-10-16T03:37:53.048Z,13.60
2022-10-16T03:42:58.412Z,13.68
2022-10-16T03:48:00.292Z,13.75
2022-10-16T03:53:02.269Z,13.79
2022-10-16T03:58:04.383Z,13.82
2022-10-16T04:03:18.717Z,13.84
2022-10-16T04:08:20.600Z,13.84
2022-10-16T04:13:22.817Z,13.84
2022-10-16T04:18:24.832Z,13.82
2022-10-16T04:23:26.633Z,13.78
2022-10-16T04:28:28.928Z,13.68
2022-10-16T04:33:31.035Z,13.58
2022-10-16T04:38:33.023Z,13.48
2022-10-16T04:43:35.902Z,13.37
2022-10-16T04:48:37.809Z,13.30
2022-10-16T04:53:39.626Z,13.22
2022-10-16T04:58:47.685Z,13.15
2022-10-16T05:04:03.309Z,13.07
2022-10-16T05:09:06.154Z,13.01
2022-10-16T05:14:08.083Z,12.97
2022-10-16T05:24:31.852Z,12.90
2022-10-16T05:29:33.784Z,12.89
2022-10-16T05:34:35.760Z,12.87
2022-10-16T05:39:38.247Z,12.87
2022-10-16T05:44:40.328Z,12.89
2022-10-16T05:49:49.708Z,12.91
2022-10-16T05:54:58.072Z,12.95
2022-10-16T06:00:00.304Z,13.02
2022-10-16T06:05:02.154Z,13.10
2022-10-16T06:10:05.431Z,13.23
2022-10-16T06:15:07.986Z,13.38
2022-10-16T06:20:10.071Z,13.60
2022-10-16T06:25:11.822Z,13.88
2022-10-16T06:30:14.840Z,14.16
2022-10-16T06:35:41.714Z,14.45
2022-10-16T06:40:54.925Z,14.76
2022-10-16T06:46:02.413Z,14.99
2022-10-16T06:51:13.454Z,15.18
2022-10-16T06:56:21.363Z,15.36
2022-10-16T07:01:24.874Z,15.64
2022-10-16T07:06:28.163Z,16.00
2022-10-16T07:11:30.264Z,16.26
2022-10-16T07:16:33.900Z,16.42
2022-10-16T07:21:36.999Z,16.58
2022-10-16T07:26:40.314Z,16.80
2022-10-16T07:31:43.581Z,17.13
2022-10-16T07:36:45.568Z,17.45
2022-10-16T07:41:47.433Z,17.72
2022-10-16T07:47:03.103Z,17.94
2022-10-16T07:52:05.068Z,18.10
2022-10-16T07:57:06.820Z,18.25
2022-10-16T08:02:08.867Z,18.30
2022-10-16T08:07:10.774Z,18.39
2022-10-16T08:12:12.667Z,18.54
2022-10-16T08:17:15.646Z,18.75
2022-10-16T08:22:17.730Z,19.11
2022-10-16T08:27:19.581Z,19.56
2022-10-16T08:32:24.020Z,19.99
2022-10-16T08:37:33.542Z,20.29
2022-10-16T08:42:47.912Z,20.49
2022-10-16T08:48:01.955Z,20.57
2022-10-16T08:53:06.157Z,20.54
2022-10-16T08:58:28.830Z,20.62
2022-10-16T09:04:00.332Z,20.90
2022-10-16T09:09:26.890Z,21.19
2022-10-16T09:14:50.016Z,21.55
2022-10-16T09:20:11.585Z,21.67
2022-10-16T09:25:21.320Z,21.91
2022-10-16T09:30:24.172Z,21.97
2022-10-16T09:35:36.646Z,21.87
2022-10-16T09:40:42.740Z,21.83
2022-10-16T09:45:55.271Z,22.01
2022-10-16T09:51:03.336Z,22.25
2022-10-16T09:56:10.372Z,22.35
2022-10-16T10:01:16.597Z,22.42
2022-10-16T10:06:29.279Z,22.43
2022-10-16T10:11:50.645Z,22.34
2022-10-16T10:17:02.562Z,22.23
2022-10-16T10:22:19.762Z,22.18
2022-10-16T10:27:24.927Z,21.83
2022-10-16T10:32:39.058Z,21.51
2022-10-16T10:38:04.650Z,21.31
2022-10-16T10:43:26.396Z,21.26
2022-10-16T10:48:35.324Z,21.30
2022-10-16T10:53:43.251Z,21.28
2022-10-16T10:59:11.450Z,21.32
2022-10-16T11:04:40.349Z,21.38
2022-10-16T11:10:14.371Z,21.34
2022-10-16T11:15:30.027Z,21.33
2022-10-16T11:20:41.234Z,21.31
2022-10-16T11:25:45.378Z,21.20
2022-10-16T11:30:52.865Z,21.00
2022-10-16T11:36:00.318Z,20.74
2022-10-16T11:41:16.624Z,20.65
2022-10-16T11:46:23.083Z,20.71
2022-10-16T11:51:37.989Z,20.75
2022-10-16T11:56:42.812Z,20.83
2022-10-16T12:02:07.817Z,21.18
2022-10-16T12:07:25.728Z,21.79
2022-10-16T12:12:37.367Z,22.11
2022-10-16T12:17:39.862Z,22.09
2022-10-16T12:22:49.337Z,22.09
2022-10-16T12:28:19.390Z,22.11
2022-10-16T12:33:27.571Z,21.93
2022-10-16T12:38:55.709Z,21.72
2022-10-16T12:43:59.618Z,21.47
2022-10-16T12:49:25.589Z,21.25
2022-10-16T12:54:38.864Z,21.03
2022-10-16T12:59:49.717Z,20.85
2022-10-16T13:05:10.214Z,20.89
2022-10-16T13:10:36.873Z,21.04
2022-10-16T13:15:50.558Z,21.19
2022-10-16T13:21:07.840Z,21.38
2022-10-16T13:26:22.756Z,21.60
2022-10-16T13:31:26.242Z,21.73
2022-10-16T13:36:32.002Z,21.63
2022-10-16T13:41:33.865Z,21.45
2022-10-16T13:46:35.659Z,21.31
2022-10-16T13:51:37.714Z,21.27
2022-10-16T13:56:41.269Z,21.56
2022-10-16T14:01:55.288Z,21.93
2022-10-16T14:06:57.155Z,22.09
2022-10-16T14:12:12.560Z,22.21
2022-10-16T14:17:33.775Z,22.30
2022-10-16T14:22:47.672Z,22.38
2022-10-16T14:33:27.697Z,22.13
2022-10-16T14:38:30.338Z,22.04
2022-10-16T14:43:37.618Z,21.96
2022-10-16T14:48:43.947Z,21.96
2022-10-16T14:53:46.434Z,21.99
2022-10-16T14:58:50.770Z,21.99
2022-10-16T15:03:54.931Z,21.95
2022-10-16T15:08:56.998Z,21.76
2022-10-16T15:13:59.030Z,21.46
2022-10-16T15:19:07.215Z,21.14
2022-10-16T15:24:16.506Z,20.80
2022-10-16T15:29:21.284Z,20.43
2022-10-16T15:34:23.110Z,20.06
2022-10-16T15:39:24.957Z,19.73
2022-10-16T15:44:30.994Z,19.41
2022-10-16T15:49:32.993Z,19.09
2022-10-16T15:54:35.073Z,18.81
2022-10-16T15:59:36.865Z,18.55
2022-10-16T16:04:43.857Z,18.35
2022-10-16T16:09:46.682Z,18.27
2022-10-16T16:14:50.135Z,18.18
2022-10-16T16:19:52.345Z,18.06
2022-10-16T16:24:54.530Z,17.95
2022-10-16T16:29:57.022Z,17.82
2022-10-16T16:34:58.773Z,17.71
2022-10-16T16:40:00.681Z,17.58
2022-10-16T16:45:02.496Z,17.45
2022-10-16T16:50:06.003Z,17.32
2022-10-16T16:55:14.094Z,17.21
2022-10-16T17:00:16.164Z,17.09
2022-10-16T17:05:19.055Z,16.98
2022-10-16T17:10:21.093Z,16.90
2022-10-16T17:15:22.933Z,16.83
2022-10-16T17:20:39.792Z,16.74
2022-10-16T17:25:42.460Z,16.67
2022-10-16T17:30:44.720Z,16.60
2022-10-16T17:35:47.379Z,16.55
2022-10-16T17:40:49.190Z,16.52
2022-10-16T17:45:51.016Z,16.50
2022-10-16T17:50:52.954Z,16.47
2022-10-16T17:55:59.333Z,16.43
2022-10-16T18:01:02.158Z,16.38
2022-10-16T18:06:04.941Z,16.39
2022-10-16T18:11:06.723Z,16.42
2022-10-16T18:16:12.491Z,16.47
2022-10-16T18:21:18.176Z,16.52
2022-10-16T18:26:21.322Z,16.58
2022-10-16T18:31:26.297Z,16.59
2022-10-16T18:36:30.893Z,16.61
2022-10-16T18:41:32.842Z,16.60
2022-10-16T18:46:34.632Z,16.56
2022-10-16T18:51:40.239Z,16.50
2022-10-16T18:56:42.337Z,16.44
2022-10-16T19:01:44.449Z,16.38
2022-10-16T19:06:49.497Z,16.36
2022-10-16T19:16:54.330Z,16.43
2022-10-16T19:22:11.196Z,16.45
2022-10-16T19:27:16.709Z,16.49
2022-10-16T19:32:18.491Z,16.48
2022-10-16T19:37:25.744Z,16.45
2022-10-16T19:42:27.768Z,16.39
2022-10-16T19:47:31.302Z,16.32
2022-10-16T19:52:34.277Z,16.28
2022-10-16T19:57:40.504Z,16.22
2022-10-16T20:02:42.501Z,16.17
2022-10-16T20:07:44.266Z,16.12
2022-10-16T20:12:46.180Z,16.06
2022-10-16T20:17:48.314Z,15.98
2022-10-16T20:22:50.175Z,15.87
2022-10-16T20:27:52.081Z,15.73
2022-10-16T20:32:56.989Z,15.59
2022-10-16T20:38:18.781Z,15.45
2022-10-16T20:43:35.458Z,15.31
2022-10-16T20:48:41.171Z,15.20
2022-10-16T20:53:44.436Z,15.07
2022-10-16T20:58:46.622Z,14.96
2022-10-16T21:03:57.031Z,14.87
2022-10-16T21:09:03.398Z,14.80
2022-10-16T21:14:09.216Z,14.74
2022-10-16T21:19:11.128Z,14.66
2022-10-16T21:24:16.542Z,14.57
2022-10-16T21:29:20.193Z,14.46
2022-10-16T21:34:22.896Z,14.34
2022-10-16T21:39:24.934Z,14.24
2022-10-16T21:44:26.848Z,14.15
2022-10-16T21:49:28.782Z,14.06
2022-10-16T21:54:30.763Z,13.96
2022-10-16T21:59:32.713Z,13.87
2022-10-16T22:04:34.740Z,13.79
2022-10-16T22:09:36.557Z,13.76
2022-10-16T22:14:39.776Z,13.74
2022-10-16T22:19:41.606Z,13.75
2022-10-16T22:24:43.703Z,13.76
2022-10-16T22:29:45.622Z,13.77
2022-10-16T22:34:47.503Z,13.78
2022-10-16T22:40:09.736Z,13.78
2022-10-16T22:45:12.022Z,13.75
2022-10-16T22:50:14.155Z,13.70
2022-10-16T22:55:16.205Z,13.66
2022-10-16T23:00:19.765Z,13.60
2022-10-16T23:05:21.561Z,13.50
2022-10-16T23:10:27.552Z,13.40
2022-10-16T23:15:29.921Z,13.27
2022-10-16T23:20:31.814Z,13.16
2022-10-16T23:25:33.758Z,13.06
2022-10-16T23:30:40.716Z,12.98
2022-10-16T23:35:42.668Z,12.92
2022-10-16T23:40:44.597Z,12.86
2022-10-16T23:45:46.442Z,12.80
2022-10-16T23:50:48.509Z,12.77
2022-10-16T23:55:50.384Z,12.76
